sensor_id;sensor_type;location;lat;lon;timestamp;pressure;altitude;pressure_sealevel;temperature;humidity
80640;BME280;69992;60.170;24.692;2023-07-30T00:01:55;100141.23;;;10.76;26.10
80640;BME280;69992;60.170;24.692;2023-07-30T00:04:20;100139.79;;;10.72;26.09
80640;BME280;69992;60.170;24.692;2023-07-30T00:06:46;100144.80;;;11.65;26.07
80640;BME280;69992;60.170;24.692;2023-07-30T00:09:12;100149.01;;;11.57;26.08
80640;BME280;69992;60.170;24.692;2023-07-30T00:11:37;100149.94;;;10.50;26.08
80640;BME280;69992;60.170;24.692;2023-07-30T00:14:03;100148.44;;;10.44;26.09
80640;BME280;69992;60.170;24.692;2023-07-30T00:16:28;100151.67;;;10.35;26.10
80640;BME280;69992;60.170;24.692;2023-07-30T00:18:54;100149.67;;;11.24;26.11
80640;BME280;69992;60.170;24.692;2023-07-30T00:21:20;100150.85;;;11.07;26.14
80640;BME280;69992;60.170;24.692;2023-07-30T00:23:45;100148.38;;;11.00;26.14
80640;BME280;69992;60.170;24.692;2023-07-30T00:26:11;100152.27;;;10.95;26.14
80640;BME280;69992;60.170;24.692;2023-07-30T00:28:36;100151.34;;;10.88;26.14
80640;BME280;69992;60.170;24.692;2023-07-30T00:31:02;100148.52;;;10.77;26.14
80640;BME280;69992;60.170;24.692;2023-07-30T00:33:27;100147.41;;;11.67;26.15
80640;BME280;69992;60.170;24.692;2023-07-30T00:35:53;100146.36;;;10.63;26.15
80640;BME280;69992;60.170;24.692;2023-07-30T00:38:19;100145.39;;;10.56;26.14
80640;BME280;69992;60.170;24.692;2023-07-30T00:40:44;100146.04;;;10.54;26.12
80640;BME280;69992;60.170;24.692;2023-07-30T00:43:10;100144.22;;;10.49;26.11
80640;BME280;69992;60.170;24.692;2023-07-30T00:45:36;100142.77;;;10.41;26.11
80640;BME280;69992;60.170;24.692;2023-07-30T00:48:01;100145.26;;;10.28;26.12
80640;BME280;69992;60.170;24.692;2023-07-30T00:50:26;100140.29;;;10.22;26.12
80640;BME280;69992;60.170;24.692;2023-07-30T00:52:52;100144.88;;;10.13;26.12
80640;BME280;69992;60.170;24.692;2023-07-30T00:55:18;100150.76;;;9.10;26.12
80640;BME280;69992;60.170;24.692;2023-07-30T00:57:43;100157.73;;;10.05;26.07
80640;BME280;69992;60.170;24.692;2023-07-30T01:00:09;100163.21;;;9.95;26.08
80640;BME280;69992;60.170;24.692;2023-07-30T01:02:35;100160.25;;;9.83;26.10
80640;BME280;69992;60.170;24.692;2023-07-30T01:05:01;100158.28;;;9.77;26.10
80640;BME280;69992;60.170;24.692;2023-07-30T01:07:25;100157.97;;;9.70;26.10
80640;BME280;69992;60.170;24.692;2023-07-30T01:09:51;100153.83;;;10.62;26.10
80640;BME280;69992;60.170;24.692;2023-07-30T01:12:16;100150.34;;;9.60;26.09
80640;BME280;69992;60.170;24.692;2023-07-30T01:14:42;100150.40;;;10.59;26.08
80640;BME280;69992;60.170;24.692;2023-07-30T01:17:07;100145.46;;;9.56;26.09
80640;BME280;69992;60.170;24.692;2023-07-30T01:19:33;100148.01;;;11.41;26.10
80640;BME280;69992;60.170;24.692;2023-07-30T01:21:59;100150.70;;;9.32;26.14
80640;BME280;69992;60.170;24.692;2023-07-30T01:24:24;100149.11;;;9.27;26.14
80640;BME280;69992;60.170;24.692;2023-07-30T01:26:55;100147.82;;;9.21;26.15
80640;BME280;69992;60.170;24.692;2023-07-30T01:29:21;100147.41;;;10.22;26.10
80640;BME280;69992;60.170;24.692;2023-07-30T01:31:41;100151.56;;;10.23;26.11
80640;BME280;69992;60.170;24.692;2023-07-30T01:34:07;100155.74;;;10.23;26.10
80640;BME280;69992;60.170;24.692;2023-07-30T01:36:33;100160.81;;;10.22;26.06
80640;BME280;69992;60.170;24.692;2023-07-30T01:38:59;100165.36;;;11.14;26.07
80640;BME280;69992;60.170;24.692;2023-07-30T01:41:24;100168.65;;;11.11;26.06
80640;BME280;69992;60.170;24.692;2023-07-30T01:43:49;100169.82;;;11.06;26.07
80640;BME280;69992;60.170;24.692;2023-07-30T01:46:14;100173.78;;;10.05;26.07
80640;BME280;69992;60.170;24.692;2023-07-30T01:48:40;100174.46;;;11.01;26.06
80640;BME280;69992;60.170;24.692;2023-07-30T01:51:06;100167.63;;;10.96;26.07
80640;BME280;69992;60.170;24.692;2023-07-30T01:53:31;100165.53;;;10.89;26.08
80640;BME280;69992;60.170;24.692;2023-07-30T01:55:57;100163.67;;;10.81;26.09
80640;BME280;69992;60.170;24.692;2023-07-30T01:58:22;100157.99;;;9.79;26.09
80640;BME280;69992;60.170;24.692;2023-07-30T02:00:48;100156.76;;;10.70;26.10
80640;BME280;69992;60.170;24.692;2023-07-30T02:03:14;100162.21;;;10.69;26.09
80640;BME280;69992;60.170;24.692;2023-07-30T02:05:39;100160.50;;;9.67;26.10
80640;BME280;69992;60.170;24.692;2023-07-30T02:08:05;100158.71;;;10.60;26.10
80640;BME280;69992;60.170;24.692;2023-07-30T02:10:30;100160.22;;;9.59;26.11
80640;BME280;69992;60.170;24.692;2023-07-30T02:12:56;100165.98;;;9.60;26.10
80640;BME280;69992;60.170;24.692;2023-07-30T02:15:22;100160.98;;;9.60;26.10
80640;BME280;69992;60.170;24.692;2023-07-30T02:17:47;100157.73;;;10.62;26.07
80640;BME280;69992;60.170;24.692;2023-07-30T02:20:13;100164.04;;;10.61;26.07
80640;BME280;69992;60.170;24.692;2023-07-30T02:22:38;100169.89;;;10.63;26.06
80640;BME280;69992;60.170;24.692;2023-07-30T02:25:04;100164.56;;;10.64;26.04
80640;BME280;69992;60.170;24.692;2023-07-30T02:27:29;100162.41;;;10.64;26.04
80640;BME280;69992;60.170;24.692;2023-07-30T02:29:55;100163.67;;;10.66;26.04
80640;BME280;69992;60.170;24.692;2023-07-30T02:32:21;100164.53;;;8.77;26.02
80640;BME280;69992;60.170;24.692;2023-07-30T02:34:46;100166.11;;;9.78;26.01
80640;BME280;69992;60.170;24.692;2023-07-30T02:37:12;100168.29;;;9.79;26.02
80640;BME280;69992;60.170;24.692;2023-07-30T02:39:37;100172.64;;;9.80;26.02
80640;BME280;69992;60.170;24.692;2023-07-30T02:42:03;100177.35;;;10.79;26.01
80640;BME280;69992;60.170;24.692;2023-07-30T02:44:28;100183.00;;;10.82;26.01
80640;BME280;69992;60.170;24.692;2023-07-30T02:46:54;100180.38;;;10.79;26.03
80640;BME280;69992;60.170;24.692;2023-07-30T02:49:20;100185.91;;;9.85;26.04
80640;BME280;69992;60.170;24.692;2023-07-30T02:51:45;100189.08;;;9.92;26.02
80640;BME280;69992;60.170;24.692;2023-07-30T02:54:11;100182.83;;;10.87;26.02
80640;BME280;69992;60.170;24.692;2023-07-30T02:56:36;100189.80;;;9.95;26.02
80640;BME280;69992;60.170;24.692;2023-07-30T02:59:02;100189.37;;;10.97;26.02
80640;BME280;69992;60.170;24.692;2023-07-30T03:01:28;100181.77;;;10.05;26.03
80640;BME280;69992;60.170;24.692;2023-07-30T03:03:53;100183.95;;;11.12;26.03
80640;BME280;69992;60.170;24.692;2023-07-30T03:06:19;100189.11;;;11.19;26.03
80640;BME280;69992;60.170;24.692;2023-07-30T03:08:44;100190.30;;;9.26;26.04
80640;BME280;69992;60.170;24.692;2023-07-30T03:11:10;100190.07;;;10.34;26.04
80640;BME280;69992;60.170;24.692;2023-07-30T03:13:36;100193.50;;;9.45;26.05
80640;BME280;69992;60.170;24.692;2023-07-30T03:16:01;100194.72;;;10.56;26.05
80640;BME280;69992;60.170;24.692;2023-07-30T03:18:27;100194.42;;;11.67;26.04
80640;BME280;69992;60.170;24.692;2023-07-30T03:20:58;100194.95;;;9.75;26.06
80640;BME280;69992;60.170;24.692;2023-07-30T03:23:18;100195.36;;;10.83;26.07
80640;BME280;69992;60.170;24.692;2023-07-30T03:25:43;100195.43;;;10.94;26.08
80640;BME280;69992;60.170;24.692;2023-07-30T03:28:09;100197.36;;;11.12;26.09
80640;BME280;69992;60.170;24.692;2023-07-30T03:30:35;100201.37;;;10.32;26.07
80640;BME280;69992;60.170;24.692;2023-07-30T03:33:00;100203.37;;;10.42;26.08
80640;BME280;69992;60.170;24.692;2023-07-30T03:35:25;100205.83;;;10.52;26.09
80640;BME280;69992;60.170;24.692;2023-07-30T03:37:51;100208.27;;;10.65;26.09
80640;BME280;69992;60.170;24.692;2023-07-30T03:40:17;100210.81;;;10.74;26.10
80640;BME280;69992;60.170;24.692;2023-07-30T03:42:42;100209.29;;;10.83;26.11
80640;BME280;69992;60.170;24.692;2023-07-30T03:45:08;100212.08;;;10.94;26.12
80640;BME280;69992;60.170;24.692;2023-07-30T03:47:33;100217.10;;;11.11;26.10
80640;BME280;69992;60.170;24.692;2023-07-30T03:49:59;100218.64;;;11.30;26.07
80640;BME280;69992;60.170;24.692;2023-07-30T03:52:24;100216.87;;;11.48;26.05
80640;BME280;69992;60.170;24.692;2023-07-30T03:54:50;100216.26;;;11.54;26.09
80640;BME280;69992;60.170;24.692;2023-07-30T03:57:15;100215.93;;;9.72;26.10
80640;BME280;69992;60.170;24.692;2023-07-30T03:59:41;100217.04;;;11.86;26.09
80640;BME280;69992;60.170;24.692;2023-07-30T04:02:06;100218.66;;;11.97;26.10
80640;BME280;69992;60.170;24.692;2023-07-30T04:04:31;100218.95;;;11.11;26.11
80640;BME280;69992;60.170;24.692;2023-07-30T04:06:57;100217.96;;;12.17;26.15
80640;BME280;69992;60.170;24.692;2023-07-30T04:09:22;100218.04;;;11.25;26.17
80640;BME280;69992;60.170;24.692;2023-07-30T04:11:48;100219.98;;;12.36;26.18
80640;BME280;69992;60.170;24.692;2023-07-30T04:14:14;100223.82;;;11.51;26.17
80640;BME280;69992;60.170;24.692;2023-07-30T04:16:39;100223.09;;;11.72;26.18
80640;BME280;69992;60.170;24.692;2023-07-30T04:19:04;100224.09;;;12.73;26.21
80640;BME280;69992;60.170;24.692;2023-07-30T04:21:30;100225.30;;;10.87;26.23
80640;BME280;69992;60.170;24.692;2023-07-30T04:23:55;100232.11;;;12.02;26.21
80640;BME280;69992;60.170;24.692;2023-07-30T04:26:21;100234.92;;;11.12;26.21
80640;BME280;69992;60.170;24.692;2023-07-30T04:28:46;100239.36;;;12.18;26.22
80640;BME280;69992;60.170;24.692;2023-07-30T04:31:12;100244.51;;;11.29;26.21
80640;BME280;69992;60.170;24.692;2023-07-30T04:33:37;100246.63;;;11.33;26.24
80640;BME280;69992;60.170;24.692;2023-07-30T04:36:03;100245.62;;;11.44;26.24
80640;BME280;69992;60.170;24.692;2023-07-30T04:38:28;100241.03;;;11.52;26.27
80640;BME280;69992;60.170;24.692;2023-07-30T04:40:54;100240.36;;;12.66;26.24
80640;BME280;69992;60.170;24.692;2023-07-30T04:43:19;100237.56;;;11.78;26.26
80640;BME280;69992;60.170;24.692;2023-07-30T04:45:45;100238.60;;;11.91;26.26
80640;BME280;69992;60.170;24.692;2023-07-30T04:48:11;100242.22;;;12.04;26.27
80640;BME280;69992;60.170;24.692;2023-07-30T04:50:36;100242.11;;;12.15;26.29
80640;BME280;69992;60.170;24.692;2023-07-30T04:53:01;100239.61;;;12.24;26.31
80640;BME280;69992;60.170;24.692;2023-07-30T04:55:27;100236.46;;;12.29;26.33
80640;BME280;69992;60.170;24.692;2023-07-30T04:57:52;100236.47;;;12.28;26.43
80640;BME280;69992;60.170;24.692;2023-07-30T05:00:18;100237.91;;;12.40;26.43
80640;BME280;69992;60.170;24.692;2023-07-30T05:02:43;100237.81;;;12.56;26.41
80640;BME280;69992;60.170;24.692;2023-07-30T05:05:09;100237.27;;;12.76;26.38
80640;BME280;69992;60.170;24.692;2023-07-30T05:07:34;100238.65;;;12.87;26.40
80640;BME280;69992;60.170;24.692;2023-07-30T05:10:00;100243.65;;;12.18;26.33
80640;BME280;69992;60.170;24.692;2023-07-30T05:12:25;100242.30;;;13.24;26.36
80640;BME280;69992;60.170;24.692;2023-07-30T05:14:51;100246.30;;;12.40;26.36
80640;BME280;69992;60.170;24.692;2023-07-30T05:17:16;100247.87;;;12.41;26.40
80640;BME280;69992;60.170;24.692;2023-07-30T05:19:42;100246.77;;;13.47;26.44
80640;BME280;69992;60.170;24.692;2023-07-30T05:22:07;100247.53;;;12.71;26.43
80640;BME280;69992;60.170;24.692;2023-07-30T05:24:33;100248.49;;;13.74;26.50
80640;BME280;69992;60.170;24.692;2023-07-30T05:26:59;100251.25;;;12.85;26.51
80640;BME280;69992;60.170;24.692;2023-07-30T05:29:24;100251.52;;;13.85;26.54
80640;BME280;69992;60.170;24.692;2023-07-30T05:31:49;100250.33;;;11.96;26.63
80640;BME280;69992;60.170;24.692;2023-07-30T05:34:15;100251.45;;;12.04;26.59
80640;BME280;69992;60.170;24.692;2023-07-30T05:36:40;100252.42;;;12.23;26.55
80640;BME280;69992;60.170;24.692;2023-07-30T05:39:06;100250.09;;;12.38;26.54
80640;BME280;69992;60.170;24.692;2023-07-30T05:41:31;100248.70;;;12.51;26.55
80640;BME280;69992;60.170;24.692;2023-07-30T05:43:57;100247.50;;;12.61;26.57
80640;BME280;69992;60.170;24.692;2023-07-30T05:46:22;100246.01;;;13.70;26.55
80640;BME280;69992;60.170;24.692;2023-07-30T05:48:48;100245.87;;;12.94;26.53
80640;BME280;69992;60.170;24.692;2023-07-30T05:51:14;100251.67;;;14.09;26.51
80640;BME280;69992;60.170;24.692;2023-07-30T05:53:39;100251.72;;;13.24;26.51
80640;BME280;69992;60.170;24.692;2023-07-30T05:56:04;100254.27;;;13.44;26.51
80640;BME280;69992;60.170;24.692;2023-07-30T05:58:30;100255.14;;;13.65;26.49
80640;BME280;69992;60.170;24.692;2023-07-30T06:00:56;100256.47;;;14.77;26.51
80640;BME280;69992;60.170;24.692;2023-07-30T06:03:21;100258.17;;;12.95;26.57
80640;BME280;69992;60.170;24.692;2023-07-30T06:05:47;100260.24;;;14.09;26.56
80640;BME280;69992;60.170;24.692;2023-07-30T06:08:12;100260.88;;;14.37;26.56
80640;BME280;69992;60.170;24.692;2023-07-30T06:10:38;100260.78;;;14.59;26.57
80640;BME280;69992;60.170;24.692;2023-07-30T06:13:03;100261.17;;;12.93;26.53
80640;BME280;69992;60.170;24.692;2023-07-30T06:15:29;100262.10;;;14.10;26.55
80640;BME280;69992;60.170;24.692;2023-07-30T06:17:54;100262.30;;;14.31;26.59
80640;BME280;69992;60.170;24.692;2023-07-30T06:20:20;100266.41;;;14.52;26.55
80640;BME280;69992;60.170;24.692;2023-07-30T06:22:45;100265.32;;;14.71;26.54
80640;BME280;69992;60.170;24.692;2023-07-30T06:25:10;100264.79;;;14.94;26.53
80640;BME280;69992;60.170;24.692;2023-07-30T06:27:36;100263.58;;;15.12;26.53
80640;BME280;69992;60.170;24.692;2023-07-30T06:30:02;100264.59;;;15.25;26.55
80640;BME280;69992;60.170;24.692;2023-07-30T06:32:27;100263.89;;;14.41;26.56
80640;BME280;69992;60.170;24.692;2023-07-30T06:34:52;100264.73;;;14.49;26.58
80640;BME280;69992;60.170;24.692;2023-07-30T06:37:18;100262.24;;;14.59;26.62
80640;BME280;69992;60.170;24.692;2023-07-30T06:39:43;100267.00;;;14.69;26.62
80640;BME280;69992;60.170;24.692;2023-07-30T06:42:09;100268.07;;;14.77;26.66
80640;BME280;69992;60.170;24.692;2023-07-30T06:44:34;100270.74;;;14.74;26.69
80640;BME280;69992;60.170;24.692;2023-07-30T06:47:00;100272.01;;;15.77;26.70
80640;BME280;69992;60.170;24.692;2023-07-30T06:49:25;100271.19;;;14.95;26.71
80640;BME280;69992;60.170;24.692;2023-07-30T06:51:51;100272.37;;;15.09;26.74
80640;BME280;69992;60.170;24.692;2023-07-30T06:54:16;100271.76;;;15.14;26.74
80640;BME280;69992;60.170;24.692;2023-07-30T06:56:42;100276.67;;;15.22;26.75
80640;BME280;69992;60.170;24.692;2023-07-30T06:59:07;100279.25;;;15.37;26.75
80640;BME280;69992;60.170;24.692;2023-07-30T07:01:33;100283.98;;;15.51;26.74
80640;BME280;69992;60.170;24.692;2023-07-30T07:03:58;100288.04;;;15.72;26.72
80640;BME280;69992;60.170;24.692;2023-07-30T07:06:24;100286.32;;;15.89;26.71
80640;BME280;69992;60.170;24.692;2023-07-30T07:08:49;100285.37;;;15.95;26.77
80640;BME280;69992;60.170;24.692;2023-07-30T07:11:15;100285.41;;;14.14;26.75
80640;BME280;69992;60.170;24.692;2023-07-30T07:13:40;100287.02;;;16.27;26.78
80640;BME280;69992;60.170;24.692;2023-07-30T07:16:06;100285.04;;;15.41;26.77
80640;BME280;69992;60.170;24.692;2023-07-30T07:18:31;100288.22;;;15.62;26.79
80640;BME280;69992;60.170;24.692;2023-07-30T07:20:57;100285.01;;;14.81;26.76
80640;BME280;69992;60.170;24.692;2023-07-30T07:23:22;100286.85;;;15.06;26.76
80640;BME280;69992;60.170;24.692;2023-07-30T07:25:47;100290.40;;;15.09;26.79
80640;BME280;69992;60.170;24.692;2023-07-30T07:28:14;100292.81;;;15.15;26.86
80640;BME280;69992;60.170;24.692;2023-07-30T07:30:39;100297.18;;;15.25;26.90
80640;BME280;69992;60.170;24.692;2023-07-30T07:33:04;100295.38;;;16.29;26.87
80640;BME280;69992;60.170;24.692;2023-07-30T07:35:29;100297.49;;;15.44;26.88
80640;BME280;69992;60.170;24.692;2023-07-30T07:37:55;100293.39;;;15.66;26.85
80640;BME280;69992;60.170;24.692;2023-07-30T07:40:20;100294.40;;;15.94;26.83
80640;BME280;69992;60.170;24.692;2023-07-30T07:42:46;100294.82;;;16.11;26.83
80640;BME280;69992;60.170;24.692;2023-07-30T07:45:11;100293.59;;;16.45;26.79
80640;BME280;69992;60.170;24.692;2023-07-30T07:47:37;100297.49;;;16.79;26.75
80640;BME280;69992;60.170;24.692;2023-07-30T07:50:02;100300.93;;;17.01;26.77
80640;BME280;69992;60.170;24.692;2023-07-30T07:52:28;100301.10;;;16.28;26.79
80640;BME280;69992;60.170;24.692;2023-07-30T07:54:53;100303.37;;;16.65;26.76
80640;BME280;69992;60.170;24.692;2023-07-30T07:57:19;100304.67;;;17.88;26.74
80640;BME280;69992;60.170;24.692;2023-07-30T07:59:44;100304.10;;;16.13;26.72
80640;BME280;69992;60.170;24.692;2023-07-30T08:02:09;100301.56;;;17.38;26.70
80640;BME280;69992;60.170;24.692;2023-07-30T08:04:35;100303.27;;;16.68;26.71
80640;BME280;69992;60.170;24.692;2023-07-30T08:07:00;100306.88;;;16.87;26.71
80640;BME280;69992;60.170;24.692;2023-07-30T08:09:26;100307.26;;;18.06;26.73
80640;BME280;69992;60.170;24.692;2023-07-30T08:11:51;100304.87;;;18.34;26.73
80640;BME280;69992;60.170;24.692;2023-07-30T08:14:17;100305.95;;;16.53;26.75
80640;BME280;69992;60.170;24.692;2023-07-30T08:16:42;100306.11;;;16.68;26.78
80640;BME280;69992;60.170;24.692;2023-07-30T08:19:07;100308.92;;;17.88;26.78
80640;BME280;69992;60.170;24.692;2023-07-30T08:21:33;100308.42;;;18.17;26.78
80640;BME280;69992;60.170;24.692;2023-07-30T08:23:58;100309.47;;;16.58;26.75
80640;BME280;69992;60.170;24.692;2023-07-30T08:26:24;100310.73;;;18.77;26.76
80640;BME280;69992;60.170;24.692;2023-07-30T08:28:49;100310.01;;;18.96;26.76
80640;BME280;69992;60.170;24.692;2023-07-30T08:31:14;100312.94;;;18.30;26.76
80640;BME280;69992;60.170;24.692;2023-07-30T08:33:40;100311.81;;;17.70;26.75
80640;BME280;69992;60.170;24.692;2023-07-30T08:36:05;100312.94;;;19.95;26.73
80640;BME280;69992;60.170;24.692;2023-07-30T08:38:31;100309.80;;;18.18;26.69
80640;BME280;69992;60.170;24.692;2023-07-30T08:40:57;100310.02;;;19.28;26.67
80640;BME280;69992;60.170;24.692;2023-07-30T08:43:22;100311.78;;;18.41;26.68
80640;BME280;69992;60.170;24.692;2023-07-30T08:45:47;100314.40;;;18.57;26.76
80640;BME280;69992;60.170;24.692;2023-07-30T08:48:13;100318.08;;;18.62;26.76
80640;BME280;69992;60.170;24.692;2023-07-30T08:50:39;100313.46;;;18.74;26.78
80640;BME280;69992;60.170;24.692;2023-07-30T08:53:04;100314.63;;;18.91;26.80
80640;BME280;69992;60.170;24.692;2023-07-30T08:55:30;100314.46;;;19.11;26.82
80640;BME280;69992;60.170;24.692;2023-07-30T08:57:55;100320.94;;;19.40;26.81
80640;BME280;69992;60.170;24.692;2023-07-30T09:00:22;100320.26;;;19.55;26.80
80640;BME280;69992;60.170;24.692;2023-07-30T09:02:49;100323.71;;;18.77;26.80
80640;BME280;69992;60.170;24.692;2023-07-30T09:05:11;100328.55;;;19.17;26.79
80640;BME280;69992;60.170;24.692;2023-07-30T09:07:36;100330.18;;;19.57;26.77
80640;BME280;69992;60.170;24.692;2023-07-30T09:10:02;100329.25;;;19.80;26.76
80640;BME280;69992;60.170;24.692;2023-07-30T09:12:29;100333.38;;;19.01;26.74
80640;BME280;69992;60.170;24.692;2023-07-30T09:14:52;100337.59;;;19.16;26.75
80640;BME280;69992;60.170;24.692;2023-07-30T09:17:19;100336.65;;;19.29;26.77
80640;BME280;69992;60.170;24.692;2023-07-30T09:19:43;100340.14;;;19.38;26.77
80640;BME280;69992;60.170;24.692;2023-07-30T09:22:09;100341.54;;;19.53;26.79
80640;BME280;69992;60.170;24.692;2023-07-30T09:24:34;100344.72;;;20.82;26.82
80640;BME280;69992;60.170;24.692;2023-07-30T09:27:02;100349.90;;;20.18;26.83
80640;BME280;69992;60.170;24.692;2023-07-30T09:29:25;100354.35;;;19.55;26.79
80640;BME280;69992;60.170;24.692;2023-07-30T09:31:52;100354.40;;;21.16;26.74
80640;BME280;69992;60.170;24.692;2023-07-30T09:34:17;100356.35;;;19.84;26.63
80640;BME280;69992;60.170;24.692;2023-07-30T09:36:41;100357.09;;;20.26;26.60
80640;BME280;69992;60.170;24.692;2023-07-30T09:39:15;100355.30;;;20.89;26.51
80640;BME280;69992;60.170;24.692;2023-07-30T09:41:32;100350.97;;;22.32;26.22
80640;BME280;69992;60.170;24.692;2023-07-30T09:43:58;100352.45;;;23.01;25.97
80640;BME280;69992;60.170;24.692;2023-07-30T09:46:23;100355.27;;;23.17;25.60
80640;BME280;69992;60.170;24.692;2023-07-30T09:48:48;100362.48;;;24.59;25.23
80640;BME280;69992;60.170;24.692;2023-07-30T09:51:14;100366.57;;;25.84;24.87
80640;BME280;69992;60.170;24.692;2023-07-30T09:53:39;100372.19;;;26.70;24.59
80640;BME280;69992;60.170;24.692;2023-07-30T09:56:05;100378.47;;;28.00;24.44
80640;BME280;69992;60.170;24.692;2023-07-30T09:58:29;100375.00;;;27.42;24.34
80640;BME280;69992;60.170;24.692;2023-07-30T10:00:56;100373.94;;;28.87;24.20
80640;BME280;69992;60.170;24.692;2023-07-30T10:03:20;100378.11;;;28.60;24.00
80640;BME280;69992;60.170;24.692;2023-07-30T10:05:47;100381.52;;;29.92;23.86
80640;BME280;69992;60.170;24.692;2023-07-30T10:08:15;100383.37;;;31.07;23.81
80640;BME280;69992;60.170;24.692;2023-07-30T10:10:36;100386.45;;;30.15;23.70
80640;BME280;69992;60.170;24.692;2023-07-30T10:13:04;100388.82;;;30.89;23.71
80640;BME280;69992;60.170;24.692;2023-07-30T10:15:27;100390.75;;;31.59;23.73
80640;BME280;69992;60.170;24.692;2023-07-30T10:17:52;100392.01;;;31.34;23.64
80640;BME280;69992;60.170;24.692;2023-07-30T10:20:20;100393.64;;;31.25;23.57
80640;BME280;69992;60.170;24.692;2023-07-30T10:22:45;100400.69;;;31.77;23.51
80640;BME280;69992;60.170;24.692;2023-07-30T10:25:12;100401.79;;;31.95;23.55
80640;BME280;69992;60.170;24.692;2023-07-30T10:27:37;100405.43;;;32.83;23.53
80640;BME280;69992;60.170;24.692;2023-07-30T10:30:09;100406.19;;;33.04;23.53
80640;BME280;69992;60.170;24.692;2023-07-30T10:32:31;100403.38;;;31.58;23.51
80640;BME280;69992;60.170;24.692;2023-07-30T10:34:49;100402.92;;;31.98;23.53
80640;BME280;69992;60.170;24.692;2023-07-30T10:37:18;100404.76;;;32.37;23.51
80640;BME280;69992;60.170;24.692;2023-07-30T10:39:40;100404.86;;;31.66;23.41
80640;BME280;69992;60.170;24.692;2023-07-30T10:42:06;100403.08;;;33.21;23.43
80640;BME280;69992;60.170;24.692;2023-07-30T10:44:32;100410.37;;;32.08;23.57
80640;BME280;69992;60.170;24.692;2023-07-30T10:46:57;100409.96;;;32.67;23.68
80640;BME280;69992;60.170;24.692;2023-07-30T10:49:21;100409.31;;;30.36;23.99
80640;BME280;69992;60.170;24.692;2023-07-30T10:51:46;100403.62;;;30.53;24.42
80640;BME280;69992;60.170;24.692;2023-07-30T10:54:12;100404.25;;;28.33;24.74
80640;BME280;69992;60.170;24.692;2023-07-30T10:56:37;100400.95;;;28.52;25.08
80640;BME280;69992;60.170;24.692;2023-07-30T10:59:03;100401.25;;;26.70;25.42
80640;BME280;69992;60.170;24.692;2023-07-30T11:01:28;100397.31;;;27.03;25.75
80640;BME280;69992;60.170;24.692;2023-07-30T11:03:53;100399.23;;;26.64;26.02
80640;BME280;69992;60.170;24.692;2023-07-30T11:06:22;100403.18;;;24.37;26.23
80640;BME280;69992;60.170;24.692;2023-07-30T11:08:44;100399.60;;;24.21;26.37
80640;BME280;69992;60.170;24.692;2023-07-30T11:11:10;100402.84;;;24.15;26.50
80640;BME280;69992;60.170;24.692;2023-07-30T11:13:36;100404.52;;;23.16;26.61
80640;BME280;69992;60.170;24.692;2023-07-30T11:16:00;100398.14;;;24.16;26.68
80640;BME280;69992;60.170;24.692;2023-07-30T11:18:30;100398.94;;;24.18;26.76
80640;BME280;69992;60.170;24.692;2023-07-30T11:20:50;100403.20;;;23.40;26.82
80640;BME280;69992;60.170;24.692;2023-07-30T11:23:18;100405.45;;;21.76;26.85
80640;BME280;69992;60.170;24.692;2023-07-30T11:25:45;100404.67;;;23.18;26.90
80640;BME280;69992;60.170;24.692;2023-07-30T11:28:07;100405.56;;;22.64;26.92
80640;BME280;69992;60.170;24.692;2023-07-30T11:30:32;100402.80;;;22.10;26.92
80640;BME280;69992;60.170;24.692;2023-07-30T11:32:57;100396.49;;;21.70;26.95
80640;BME280;69992;60.170;24.692;2023-07-30T11:35:23;100403.16;;;21.32;26.96
80640;BME280;69992;60.170;24.692;2023-07-30T11:37:48;100407.87;;;21.01;26.97
80640;BME280;69992;60.170;24.692;2023-07-30T11:40:14;100403.96;;;22.88;26.94
80640;BME280;69992;60.170;24.692;2023-07-30T11:42:39;100402.98;;;20.85;26.96
80640;BME280;69992;60.170;24.692;2023-07-30T11:45:17;100400.54;;;22.85;26.91
80640;BME280;69992;60.170;24.692;2023-07-30T11:47:30;100407.62;;;21.96;26.81
80640;BME280;69992;60.170;24.692;2023-07-30T11:49:56;100411.79;;;21.99;26.78
80640;BME280;69992;60.170;24.692;2023-07-30T11:52:21;100413.43;;;22.00;26.73
80640;BME280;69992;60.170;24.692;2023-07-30T11:54:46;100413.36;;;21.15;26.71
80640;BME280;69992;60.170;24.692;2023-07-30T11:57:11;100413.58;;;22.22;26.62
80640;BME280;69992;60.170;24.692;2023-07-30T11:59:37;100418.33;;;22.19;26.65
80640;BME280;69992;60.170;24.692;2023-07-30T12:02:02;100421.00;;;22.42;26.62
80640;BME280;69992;60.170;24.692;2023-07-30T12:04:30;100420.32;;;21.93;26.52
80640;BME280;69992;60.170;24.692;2023-07-30T12:06:53;100417.58;;;23.73;26.41
80640;BME280;69992;60.170;24.692;2023-07-30T12:09:20;100422.73;;;23.59;26.27
80640;BME280;69992;60.170;24.692;2023-07-30T12:11:46;100424.15;;;24.38;25.99
80640;BME280;69992;60.170;24.692;2023-07-30T12:14:09;100416.28;;;24.47;25.84
80640;BME280;69992;60.170;24.692;2023-07-30T12:16:34;100423.09;;;26.58;25.69
80640;BME280;69992;60.170;24.692;2023-07-30T12:19:00;100428.89;;;24.26;25.14
80640;BME280;69992;60.170;24.692;2023-07-30T12:21:25;100432.83;;;24.78;25.04
80640;BME280;69992;60.170;24.692;2023-07-30T12:23:51;100433.60;;;26.07;24.99
80640;BME280;69992;60.170;24.692;2023-07-30T12:26:16;100434.32;;;26.36;25.12
80640;BME280;69992;60.170;24.692;2023-07-30T12:28:41;100433.60;;;25.96;25.12
80640;BME280;69992;60.170;24.692;2023-07-30T12:31:07;100433.81;;;26.08;25.01